createdAt,value
2019-02-12T00:00:47.129Z,1016.01
2019-02-12T00:01:47.079Z,1016.01
2019-02-12T00:02:47.028Z,1016.00
2019-02-12T00:03:47.028Z,1016.01
2019-02-12T00:04:46.978Z,1015.96
2019-02-12T00:05:46.877Z,1016.01
2019-02-12T00:06:46.831Z,1016.06
2019-02-12T00:07:46.777Z,1016.05
2019-02-12T00:08:46.727Z,1016.08
2019-02-12T00:09:46.676Z,1016.04
2019-02-12T00:10:46.626Z,1016.09
2019-02-12T00:11:46.576Z,1016.14
2019-02-12T00:12:46.526Z,1016.14
2019-02-12T00:13:46.475Z,1016.15
2019-02-12T00:14:46.425Z,1016.12
2019-02-12T00:15:46.376Z,1016.10
2019-02-12T00:16:46.332Z,1016.10
2019-02-12T00:17:46.275Z,1016.10
2019-02-12T00:18:46.223Z,1016.11
2019-02-12T00:19:46.175Z,1016.11
2019-02-12T00:20:46.125Z,1016.11
2019-02-12T00:21:46.074Z,1016.11
2019-02-12T00:22:46.024Z,1016.06
2019-02-12T00:23:45.974Z,1016.05
2019-02-12T00:24:45.926Z,1016.03
2019-02-12T00:25:45.873Z,1016.01
2019-02-12T00:26:45.877Z,1015.99
2019-02-12T00:27:45.773Z,1016.05
2019-02-12T00:28:45.727Z,1016.07
2019-02-12T00:29:45.989Z,1016.04
2019-02-12T00:30:45.622Z,1016.04
2019-02-12T00:31:45.572Z,1016.03
2019-02-12T00:32:45.524Z,1016.03
2019-02-12T00:33:45.471Z,1016.02
2019-02-12T00:34:45.422Z,1016.03
2019-02-12T00:35:45.371Z,1016.06
2019-02-12T00:36:45.322Z,1016.09
2019-02-12T00:37:45.277Z,1016.09
2019-02-12T00:38:45.220Z,1016.14
2019-02-12T00:39:45.171Z,1016.13
2019-02-12T00:40:45.121Z,1016.14
2019-02-12T00:41:45.069Z,1016.16
2019-02-12T00:42:45.020Z,1016.16
2019-02-12T00:43:44.970Z,1016.24
2019-02-12T00:44:44.971Z,1016.31
2019-02-12T00:45:44.871Z,1016.25
2019-02-12T00:46:44.819Z,1016.32
2019-02-12T00:47:44.772Z,1016.30
2019-02-12T00:48:44.792Z,1016.25
2019-02-12T00:49:44.669Z,1016.29
2019-02-12T00:50:44.618Z,1016.25
2019-02-12T00:51:44.569Z,1016.22
2019-02-12T00:52:44.519Z,1016.18
2019-02-12T00:53:44.470Z,1016.17
2019-02-12T00:54:44.419Z,1016.14
2019-02-12T00:55:44.368Z,1016.03
2019-02-12T00:56:44.321Z,1016.12
2019-02-12T00:57:44.267Z,1016.09
2019-02-12T00:58:44.217Z,1016.14
2019-02-12T00:59:44.167Z,1016.14
2019-02-12T01:00:44.116Z,1016.12
2019-02-12T01:01:44.066Z,1016.12
2019-02-12T01:02:44.016Z,1016.08
2019-02-12T01:03:43.966Z,1016.11
2019-02-12T01:04:43.916Z,1016.16
2019-02-12T01:05:43.865Z,1016.13
2019-02-12T01:06:43.815Z,1016.10
2019-02-12T01:07:43.767Z,1016.17
2019-02-12T01:08:43.715Z,1016.22
2019-02-12T01:09:43.664Z,1016.26
2019-02-12T01:10:43.616Z,1016.22
2019-02-12T01:11:43.564Z,1016.24
2019-02-12T01:12:43.514Z,1016.23
2019-02-12T01:13:43.463Z,1016.26
2019-02-12T01:14:43.413Z,1016.26
2019-02-12T01:15:43.365Z,1016.27
2019-02-12T01:16:43.314Z,1016.31
2019-02-12T01:17:43.262Z,1016.32
2019-02-12T01:18:43.212Z,1016.32
2019-02-12T01:19:43.163Z,1016.38
2019-02-12T01:20:43.114Z,1016.43
2019-02-12T01:21:43.061Z,1016.48
2019-02-12T01:22:43.011Z,1016.43
2019-02-12T01:23:42.965Z,1016.51
2019-02-12T01:24:42.961Z,1016.46
2019-02-12T01:25:42.860Z,1016.50
2019-02-12T01:26:42.812Z,1016.52
2019-02-12T01:27:42.792Z,1016.50
2019-02-12T01:28:42.710Z,1016.50
2019-02-12T01:29:42.659Z,1016.50
2019-02-12T01:30:42.609Z,1016.62
2019-02-12T01:31:42.573Z,1016.59
2019-02-12T01:32:42.509Z,1016.58
2019-02-12T01:33:42.457Z,1016.60
2019-02-12T01:34:42.408Z,1016.58
2019-02-12T01:35:42.358Z,1016.61
2019-02-12T01:36:42.310Z,1016.65
2019-02-12T01:37:42.261Z,1016.66
2019-02-12T01:38:42.212Z,1016.66
2019-02-12T01:39:42.157Z,1016.72
2019-02-12T01:40:42.107Z,1016.77
2019-02-12T01:41:42.055Z,1016.75
2019-02-12T01:42:42.323Z,1016.78
2019-02-12T01:43:41.956Z,1016.77
2019-02-12T01:44:41.955Z,1016.75
2019-02-12T01:45:41.855Z,1016.82
2019-02-12T01:46:41.806Z,1016.83
2019-02-12T01:47:41.757Z,1016.84
2019-02-12T01:48:41.713Z,1016.86
2019-02-12T01:49:41.654Z,1016.87
2019-02-12T01:50:41.608Z,1016.83
2019-02-12T01:51:41.554Z,1016.81
2019-02-12T01:52:41.506Z,1016.81
2019-02-12T01:53:41.456Z,1016.84
2019-02-12T01:54:41.403Z,1016.77
2019-02-12T01:55:41.353Z,1016.83
2019-02-12T01:56:41.303Z,1016.87
2019-02-12T01:57:41.252Z,1016.89
2019-02-12T01:58:41.202Z,1016.88
2019-02-12T01:59:41.152Z,1016.87
2019-02-12T02:00:41.102Z,1016.92
2019-02-12T02:01:41.052Z,1016.92
2019-02-12T02:02:41.002Z,1016.93
2019-02-12T02:03:41.012Z,1016.95
2019-02-12T02:04:40.951Z,1016.96
2019-02-12T02:05:40.851Z,1016.97
2019-02-12T02:06:40.804Z,1016.96
2019-02-12T02:07:40.750Z,1016.94
2019-02-12T02:08:40.701Z,1016.95
2019-02-12T02:09:40.649Z,1016.89
2019-02-12T02:10:40.599Z,1016.92
2019-02-12T02:11:40.549Z,1016.96
2019-02-12T02:12:40.499Z,1016.96
2019-02-12T02:13:40.449Z,1016.97
2019-02-12T02:14:40.399Z,1016.93
2019-02-12T02:15:40.348Z,1016.84
2019-02-12T02:16:40.298Z,1016.89
2019-02-12T02:17:40.247Z,1016.86
2019-02-12T02:18:40.208Z,1016.83
2019-02-12T02:19:40.147Z,1016.90
2019-02-12T02:20:40.097Z,1016.86
2019-02-12T02:21:44.051Z,1016.85
2019-02-12T02:22:39.997Z,1016.93
2019-02-12T02:23:39.950Z,1016.93
2019-02-12T02:24:39.896Z,1017.00
2019-02-12T02:25:39.845Z,1017.06
2019-02-12T02:26:39.794Z,1016.99
2019-02-12T02:27:39.746Z,1017.00
2019-02-12T02:28:39.697Z,1017.00
2019-02-12T02:29:39.644Z,1017.06
2019-02-12T02:30:39.594Z,1017.05
2019-02-12T02:31:39.547Z,1017.09
2019-02-12T02:32:39.494Z,1017.14
2019-02-12T02:33:39.444Z,1017.12
2019-02-12T02:34:39.393Z,1017.14
2019-02-12T02:35:39.343Z,1017.17
2019-02-12T02:36:39.293Z,1017.15
2019-02-12T02:37:39.242Z,1017.18
2019-02-12T02:38:39.201Z,1017.17
2019-02-12T02:39:39.142Z,1017.18
2019-02-12T02:40:39.093Z,1017.23
2019-02-12T02:41:39.045Z,1017.20
2019-02-12T02:42:38.998Z,1017.21
2019-02-12T02:43:38.992Z,1017.18
2019-02-12T02:44:38.891Z,1017.21
2019-02-12T02:45:38.840Z,1017.16
2019-02-12T02:46:38.791Z,1017.20
2019-02-12T02:47:38.739Z,1017.18
2019-02-12T02:48:38.690Z,1017.15
2019-02-12T02:49:38.639Z,1017.27
2019-02-12T02:50:38.590Z,1017.22
2019-02-12T02:51:38.540Z,1017.25
2019-02-12T02:52:38.491Z,1017.21
2019-02-12T02:53:38.438Z,1017.22
2019-02-12T02:54:38.388Z,1017.27
2019-02-12T02:55:38.341Z,1017.29
2019-02-12T02:56:38.288Z,1017.29
2019-02-12T02:57:38.240Z,1017.37
2019-02-12T02:58:38.188Z,1017.28
2019-02-12T02:59:38.137Z,1017.34
2019-02-12T03:00:38.092Z,1017.27
2019-02-12T03:01:38.085Z,1017.39
2019-02-12T03:02:37.986Z,1017.41
2019-02-12T03:03:37.994Z,1017.37
2019-02-12T03:04:37.887Z,1017.33
2019-02-12T03:05:37.836Z,1017.16
2019-02-12T03:06:37.786Z,1017.20
2019-02-12T03:07:37.734Z,1017.18
2019-02-12T03:08:37.685Z,1017.15
2019-02-12T03:09:37.635Z,1017.13
2019-02-12T03:10:37.634Z,1017.11
2019-02-12T03:11:37.535Z,1017.15
2019-02-12T03:12:37.484Z,1017.24
2019-02-12T03:13:37.433Z,1017.10
2019-02-12T03:14:37.383Z,1017.17
2019-02-12T03:15:37.333Z,1017.13
2019-02-12T03:16:37.282Z,1017.17
2019-02-12T03:17:37.231Z,1017.16
2019-02-12T03:18:37.183Z,1017.20
2019-02-12T03:19:37.132Z,1017.19
2019-02-12T03:20:37.085Z,1017.21
2019-02-12T03:21:37.033Z,1017.21
2019-02-12T03:22:37.032Z,1017.26
2019-02-12T03:23:36.933Z,1017.30
2019-02-12T03:24:36.914Z,1017.38
2019-02-12T03:25:36.831Z,1017.38
2019-02-12T03:26:36.781Z,1017.45
2019-02-12T03:27:36.731Z,1017.46
2019-02-12T03:28:36.681Z,1017.45
2019-02-12T03:29:36.630Z,1017.46
2019-02-12T03:30:36.581Z,1017.57
2019-02-12T03:31:36.538Z,1017.60
2019-02-12T03:32:36.508Z,1017.56
2019-02-12T03:33:36.447Z,1017.61
2019-02-12T03:34:36.381Z,1017.64
2019-02-12T03:35:36.328Z,1017.63
2019-02-12T03:36:36.283Z,1017.65
2019-02-12T03:37:36.237Z,1017.60
2019-02-12T03:38:36.178Z,1017.64
2019-02-12T03:39:36.127Z,1017.62
2019-02-12T03:40:36.077Z,1017.65
2019-02-12T03:41:36.027Z,1017.70
2019-02-12T03:42:35.976Z,1017.67
2019-02-12T03:43:36.026Z,1017.73
2019-02-12T03:44:35.876Z,1017.68
2019-02-12T03:45:35.825Z,1017.70
2019-02-12T03:46:35.775Z,1017.73
2019-02-12T03:47:35.725Z,1017.70
2019-02-12T03:48:35.679Z,1017.69
2019-02-12T03:49:35.622Z,1017.75
2019-02-12T03:50:35.577Z,1017.76
2019-02-12T03:51:35.523Z,1017.76
2019-02-12T03:52:35.484Z,1017.76
2019-02-12T03:53:35.421Z,1017.74
2019-02-12T03:54:35.380Z,1017.78
2019-02-12T03:55:35.325Z,1017.84
2019-02-12T03:56:35.272Z,1017.88
2019-02-12T03:57:35.221Z,1017.81
2019-02-12T03:58:35.171Z,1017.89
2019-02-12T03:59:35.123Z,1017.88
2019-02-12T04:00:35.072Z,1017.88
2019-02-12T04:01:35.030Z,1017.87
2019-02-12T04:02:34.968Z,1017.78
2019-02-12T04:03:36.585Z,1017.80
2019-02-12T04:04:34.872Z,1017.73
2019-02-12T04:05:34.821Z,1017.71
2019-02-12T04:06:34.768Z,1017.81
2019-02-12T04:07:34.719Z,1017.78
2019-02-12T04:08:34.667Z,1017.81
2019-02-12T04:09:34.617Z,1017.80
2019-02-12T04:10:34.568Z,1017.75
2019-02-12T04:11:34.517Z,1017.83
2019-02-12T04:12:34.466Z,1017.70
2019-02-12T04:13:34.415Z,1017.70
2019-02-12T04:14:34.372Z,1017.72
2019-02-12T04:15:34.314Z,1017.70
2019-02-12T04:16:34.265Z,1017.69
2019-02-12T04:17:34.215Z,1017.73
2019-02-12T04:18:34.164Z,1017.76
2019-02-12T04:19:34.118Z,1017.79
2019-02-12T04:20:34.065Z,1017.74
2019-02-12T04:21:34.027Z,1017.75
2019-02-12T04:22:33.964Z,1017.73
2019-02-12T04:23:33.912Z,1017.71
2019-02-12T04:24:33.863Z,1017.74
2019-02-12T04:25:33.817Z,1017.71
2019-02-12T04:26:33.761Z,1017.73
2019-02-12T04:27:33.715Z,1017.68
2019-02-12T04:28:33.661Z,1017.71
2019-02-12T04:29:33.611Z,1017.69
2019-02-12T04:30:33.562Z,1017.64
2019-02-12T04:31:33.517Z,1017.66
2019-02-12T04:32:33.460Z,1017.68
2019-02-12T04:33:33.413Z,1017.61
2019-02-12T04:34:33.360Z,1017.65
2019-02-12T04:35:33.308Z,1017.73
2019-02-12T04:36:33.258Z,1017.71
2019-02-12T04:37:33.207Z,1017.67
2019-02-12T04:38:33.159Z,1017.77
2019-02-12T04:39:33.107Z,1017.76
2019-02-12T04:40:33.058Z,1017.80
2019-02-12T04:41:33.008Z,1017.85
2019-02-12T04:42:33.276Z,1017.83
2019-02-12T04:43:32.906Z,1017.94
2019-02-12T04:44:32.855Z,1017.87
2019-02-12T04:45:32.804Z,1017.91
2019-02-12T04:46:32.755Z,1017.89
2019-02-12T04:47:32.704Z,1017.93
2019-02-12T04:48:32.653Z,1017.92
2019-02-12T04:49:32.603Z,1017.91
2019-02-12T04:50:32.553Z,1017.95
2019-02-12T04:51:32.522Z,1017.95
2019-02-12T04:52:32.453Z,1017.89
2019-02-12T04:53:32.401Z,1017.91
2019-02-12T04:54:32.353Z,1017.95
2019-02-12T04:55:32.301Z,1017.87
2019-02-12T04:56:32.251Z,1017.87
2019-02-12T04:57:32.200Z,1017.78
2019-02-12T04:58:32.150Z,1017.80
2019-02-12T04:59:32.101Z,1017.79
2019-02-12T05:00:32.050Z,1017.81
2019-02-12T05:01:31.999Z,1017.86
2019-02-12T05:02:31.999Z,1017.85
2019-02-12T05:03:31.899Z,1017.83
2019-02-12T05:04:31.856Z,1017.86
2019-02-12T05:05:31.798Z,1017.83
2019-02-12T05:06:31.748Z,1017.84
2019-02-12T05:07:31.703Z,1017.89
2019-02-12T05:08:31.648Z,1017.89
2019-02-12T05:09:31.597Z,1017.93
2019-02-12T05:10:31.544Z,1017.92
2019-02-12T05:11:31.497Z,1017.92
2019-02-12T05:12:31.445Z,1018.05
2019-02-12T05:13:31.394Z,1018.03
2019-02-12T05:14:31.344Z,1018.01
2019-02-12T05:15:31.294Z,1018.06
2019-02-12T05:16:31.244Z,1018.05
2019-02-12T05:17:31.193Z,1018.10
2019-02-12T05:18:31.143Z,1018.08
2019-02-12T05:19:31.093Z,1018.15
2019-02-12T05:20:31.093Z,1018.15
2019-02-12T05:21:31.141Z,1018.09
2019-02-12T05:22:31.093Z,1018.18
2019-02-12T05:23:30.891Z,1018.11
2019-02-12T05:24:30.841Z,1018.10
2019-02-12T05:25:30.790Z,1018.09
2019-02-12T05:26:30.740Z,1018.03
2019-02-12T05:27:30.691Z,1018.00
2019-02-12T05:28:30.640Z,1017.99
2019-02-12T05:29:30.588Z,1017.93
2019-02-12T05:30:30.539Z,1017.93
2019-02-12T05:31:30.491Z,1017.98
2019-02-12T05:32:30.438Z,1017.97
2019-02-12T05:33:30.389Z,1017.96
2019-02-12T05:34:30.340Z,1017.95
2019-02-12T05:35:30.286Z,1017.97
2019-02-12T05:36:30.263Z,1017.93
2019-02-12T05:37:30.194Z,1018.03
2019-02-12T05:38:30.138Z,1018.11
2019-02-12T05:39:30.085Z,1018.14
2019-02-12T05:40:30.134Z,1018.13
2019-02-12T05:41:30.085Z,1018.23
2019-02-12T05:42:30.083Z,1018.21
2019-02-12T05:43:29.888Z,1018.28
2019-02-12T05:44:29.834Z,1018.23
2019-02-12T05:45:29.784Z,1018.34
2019-02-12T05:46:29.733Z,1018.35
2019-02-12T05:47:29.682Z,1018.37
2019-02-12T05:48:29.631Z,1018.42
2019-02-12T05:49:29.582Z,1018.46
2019-02-12T05:50:29.530Z,1018.50
2019-02-12T05:51:29.480Z,1018.57
2019-02-12T05:52:29.431Z,1018.57
2019-02-12T05:53:29.379Z,1018.63
2019-02-12T05:54:29.330Z,1018.70
2019-02-12T05:55:29.280Z,1018.73
2019-02-12T05:56:29.229Z,1018.72
2019-02-12T05:57:29.178Z,1018.75
2019-02-12T05:58:29.127Z,1018.76
2019-02-12T05:59:29.078Z,1018.76
2019-02-12T06:00:29.028Z,1018.81
2019-02-12T06:01:28.978Z,1018.86
2019-02-12T06:02:28.924Z,1018.87
2019-02-12T06:03:28.876Z,1018.89
2019-02-12T06:04:28.825Z,1018.93
2019-02-12T06:05:28.774Z,1018.87
2019-02-12T06:06:28.723Z,1018.89
2019-02-12T06:07:28.784Z,1018.89
2019-02-12T06:08:28.625Z,1018.94
2019-02-12T06:09:28.573Z,1018.98
2019-02-12T06:10:28.529Z,1019.06
2019-02-12T06:11:28.481Z,1019.04
2019-02-12T06:12:28.423Z,1019.06
2019-02-12T06:13:28.372Z,1019.05
2019-02-12T06:14:28.321Z,1019.13
2019-02-12T06:15:28.278Z,1019.22
2019-02-12T06:16:28.220Z,1019.25
2019-02-12T06:17:28.169Z,1019.27
2019-02-12T06:18:28.131Z,1019.29
2019-02-12T06:19:28.070Z,1019.29
2019-02-12T06:20:28.026Z,1019.25
2019-02-12T06:21:28.019Z,1019.26
2019-02-12T06:22:27.918Z,1019.31
2019-02-12T06:23:27.867Z,1019.30
2019-02-12T06:24:27.817Z,1019.27
2019-02-12T06:25:27.786Z,1019.31
2019-02-12T06:26:27.716Z,1019.33
2019-02-12T06:27:27.667Z,1019.35
2019-02-12T06:28:27.616Z,1019.38
2019-02-12T06:29:27.565Z,1019.42
2019-02-12T06:30:27.514Z,1019.46
2019-02-12T06:31:27.465Z,1019.49
2019-02-12T06:32:27.419Z,1019.47
2019-02-12T06:33:27.364Z,1019.55
2019-02-12T06:34:27.313Z,1019.53
2019-02-12T06:35:27.263Z,1019.55
2019-02-12T06:36:27.214Z,1019.64
2019-02-12T06:37:27.163Z,1019.66
2019-02-12T06:38:27.115Z,1019.65
2019-02-12T06:39:27.111Z,1019.69
2019-02-12T06:40:27.013Z,1019.67
2019-02-12T06:41:27.010Z,1019.68
2019-02-12T06:42:27.011Z,1019.68
2019-02-12T06:43:26.865Z,1019.71
2019-02-12T06:44:26.812Z,1019.76
2019-02-12T06:45:26.759Z,1019.73
2019-02-12T06:46:26.722Z,1019.76
2019-02-12T06:47:26.661Z,1019.79
2019-02-12T06:48:26.608Z,1019.79
2019-02-12T06:49:26.557Z,1019.83
2019-02-12T06:50:26.507Z,1019.83
2019-02-12T06:51:26.456Z,1019.88
2019-02-12T06:52:26.406Z,1019.87
2019-02-12T06:53:26.354Z,1019.83
2019-02-12T06:54:26.304Z,1019.76
2019-02-12T06:55:26.256Z,1019.79
2019-02-12T06:56:26.205Z,1019.82
2019-02-12T06:57:26.194Z,1019.82
2019-02-12T06:58:26.103Z,1019.87
2019-02-12T06:59:26.057Z,1019.89
2019-02-12T07:00:26.003Z,1019.86
2019-02-12T07:01:25.953Z,1019.83
2019-02-12T07:02:25.902Z,1019.93
2019-02-12T07:03:25.853Z,1019.95
2019-02-12T07:04:25.803Z,1019.99
2019-02-12T07:05:25.751Z,1020.02
2019-02-12T07:06:25.700Z,1019.99
2019-02-12T07:07:25.651Z,1020.03
2019-02-12T07:08:25.606Z,1020.07
2019-02-12T07:09:25.551Z,1020.10
2019-02-12T07:10:25.500Z,1020.11
2019-02-12T07:11:25.447Z,1020.18
2019-02-12T07:12:25.397Z,1020.17
2019-02-12T07:13:25.348Z,1020.22
2019-02-12T07:14:25.298Z,1020.24
2019-02-12T07:15:25.248Z,1020.28
2019-02-12T07:16:25.198Z,1020.29
2019-02-12T07:17:25.146Z,1020.32
2019-02-12T07:18:25.100Z,1020.37
2019-02-12T07:19:25.054Z,1020.38
2019-02-12T07:20:25.000Z,1020.38
2019-02-12T07:21:24.995Z,1020.38
2019-02-12T07:22:24.909Z,1020.38
2019-02-12T07:23:24.844Z,1020.40
2019-02-12T07:24:24.796Z,1020.40
2019-02-12T07:25:24.746Z,1020.41
2019-02-12T07:26:24.693Z,1020.42
2019-02-12T07:27:24.646Z,1020.45
2019-02-12T07:28:24.593Z,1020.43
2019-02-12T07:29:24.542Z,1020.48
2019-02-12T07:30:24.500Z,1020.48
2019-02-12T07:31:24.442Z,1020.47
2019-02-12T07:32:24.390Z,1020.54
2019-02-12T07:33:24.340Z,1020.48
2019-02-12T07:34:24.290Z,1020.46
2019-02-12T07:35:24.248Z,1020.48
2019-02-12T07:36:24.189Z,1020.50
2019-02-12T07:37:24.141Z,1020.54
2019-02-12T07:38:24.089Z,1020.61
2019-02-12T07:39:24.039Z,1020.59
2019-02-12T07:40:23.989Z,1020.64
2019-02-12T07:41:23.997Z,1020.65
2019-02-12T07:42:23.897Z,1020.63
2019-02-12T07:43:23.839Z,1020.66
2019-02-12T07:44:23.788Z,1020.71
2019-02-12T07:45:23.735Z,1020.73
2019-02-12T07:46:23.687Z,1020.77
2019-02-12T07:47:23.637Z,1020.77
2019-02-12T07:48:23.593Z,1020.80
2019-02-12T07:49:23.584Z,1020.81
2019-02-12T07:50:23.486Z,1020.83
2019-02-12T07:51:23.434Z,1020.83
2019-02-12T07:52:23.388Z,1020.83
2019-02-12T07:53:30.932Z,1020.85
2019-02-12T07:54:23.284Z,1020.85
2019-02-12T07:55:23.234Z,1020.87
2019-02-12T07:56:23.183Z,1020.85
2019-02-12T07:57:23.132Z,1020.88
2019-02-12T07:58:23.084Z,1020.93
2019-02-12T07:59:23.033Z,1020.91
2019-02-12T08:00:23.035Z,1020.89
2019-02-12T08:01:22.985Z,1020.91
2019-02-12T08:02:22.882Z,1020.89
2019-02-12T08:03:22.832Z,1020.96
2019-02-12T08:04:22.783Z,1020.95
2019-02-12T08:05:22.729Z,1020.91
2019-02-12T08:06:22.681Z,1020.93
2019-02-12T08:07:22.632Z,1020.93
2019-02-12T08:08:22.581Z,1020.96
2019-02-12T08:09:22.534Z,1020.92
2019-02-12T08:10:22.480Z,1020.96
2019-02-12T08:11:22.430Z,1020.97
2019-02-12T08:12:22.380Z,1021.00
2019-02-12T08:13:22.328Z,1021.01
2019-02-12T08:14:22.279Z,1020.97
2019-02-12T08:15:22.228Z,1021.02
2019-02-12T08:16:22.179Z,1021.02
2019-02-12T08:17:22.128Z,1021.04
2019-02-12T08:18:22.079Z,1021.05
2019-02-12T08:19:22.031Z,1021.11
2019-02-12T08:20:21.978Z,1021.09
2019-02-12T08:21:21.977Z,1021.13
2019-02-12T08:22:21.878Z,1021.16
2019-02-12T08:23:21.826Z,1021.16
2019-02-12T08:24:21.777Z,1021.19
2019-02-12T08:25:21.724Z,1021.15
2019-02-12T08:26:21.675Z,1021.15
2019-02-12T08:27:21.627Z,1021.19
2019-02-12T08:28:21.576Z,1021.23
2019-02-12T08:29:21.527Z,1021.21
2019-02-12T08:30:21.475Z,1021.22
2019-02-12T08:31:21.427Z,1021.21
2019-02-12T08:32:21.389Z,1021.23
2019-02-12T08:33:21.327Z,1021.23
2019-02-12T08:34:21.273Z,1021.22
2019-02-12T08:35:21.232Z,1021.25
2019-02-12T08:36:21.175Z,1021.27
2019-02-12T08:37:21.124Z,1021.27
2019-02-12T08:38:21.075Z,1021.27
2019-02-12T08:39:21.023Z,1021.29
2019-02-12T08:40:20.973Z,1021.29
2019-02-12T08:41:21.022Z,1021.32
2019-02-12T08:42:20.871Z,1021.33
2019-02-12T08:43:20.822Z,1021.33
2019-02-12T08:44:20.771Z,1021.33
2019-02-12T08:45:20.721Z,1021.36
2019-02-12T08:46:20.675Z,1021.41
2019-02-12T08:47:20.629Z,1021.44
2019-02-12T08:48:20.573Z,1021.49
2019-02-12T08:49:20.519Z,1021.47
2019-02-12T08:50:20.472Z,1021.48
2019-02-12T08:51:20.420Z,1021.53
2019-02-12T08:52:20.371Z,1021.50
2019-02-12T08:53:20.319Z,1021.54
2019-02-12T08:54:20.270Z,1021.51
2019-02-12T08:55:20.222Z,1021.57
2019-02-12T08:56:20.170Z,1021.54
2019-02-12T08:57:20.125Z,1021.57
2019-02-12T08:58:20.069Z,1021.59
2019-02-12T08:59:20.019Z,1021.62
2019-02-12T09:00:19.970Z,1021.64
2019-02-12T09:01:19.955Z,1021.65
2019-02-12T09:02:19.869Z,1021.67
2019-02-12T09:03:19.819Z,1021.67
2019-02-12T09:04:19.770Z,1021.71
2019-02-12T09:05:19.742Z,1021.74
2019-02-12T09:06:19.669Z,1021.71
2019-02-12T09:07:19.620Z,1021.73
2019-02-12T09:08:19.570Z,1021.70
2019-02-12T09:09:19.523Z,1021.70
2019-02-12T09:10:19.470Z,1021.76
2019-02-12T09:11:19.419Z,1021.73
2019-02-12T09:12:19.370Z,1021.72
2019-02-12T09:13:19.320Z,1021.72
2019-02-12T09:14:19.269Z,1021.75
2019-02-12T09:15:19.220Z,1021.69
2019-02-12T09:16:19.171Z,1021.74
2019-02-12T09:17:19.119Z,1021.79
2019-02-12T09:18:19.072Z,1021.77
2019-02-12T09:19:19.021Z,1021.77
2019-02-12T09:20:18.973Z,1021.71
2019-02-12T09:21:18.978Z,1021.71
2019-02-12T09:22:18.875Z,1021.78
2019-02-12T09:23:18.822Z,1021.78
2019-02-12T09:24:18.773Z,1021.77
2019-02-12T09:25:18.724Z,1021.81
2019-02-12T09:26:18.672Z,1021.80
2019-02-12T09:27:18.623Z,1021.80
2019-02-12T09:28:18.573Z,1021.83
2019-02-12T09:29:18.524Z,1021.85
2019-02-12T09:30:18.486Z,1021.88
2019-02-12T09:31:18.423Z,1021.93
2019-02-12T09:32:18.423Z,1021.97
2019-02-12T09:33:18.326Z,1021.92
2019-02-12T09:34:18.274Z,1021.89
2019-02-12T09:35:18.268Z,1021.96
2019-02-12T09:36:18.176Z,1022.01
2019-02-12T09:37:18.170Z,1022.03
2019-02-12T09:38:18.075Z,1022.08
2019-02-12T09:39:18.024Z,1022.06
2019-02-12T09:40:19.474Z,1022.09
2019-02-12T09:41:17.979Z,1022.15
2019-02-12T09:42:17.879Z,1022.16
2019-02-12T09:43:17.826Z,1022.19
2019-02-12T09:44:17.778Z,1022.18
2019-02-12T09:45:17.728Z,1022.22
2019-02-12T09:46:17.678Z,1022.21
2019-02-12T09:47:17.633Z,1022.21
2019-02-12T09:48:17.578Z,1022.26
2019-02-12T09:49:17.527Z,1022.29
2019-02-12T09:50:17.479Z,1022.28
2019-02-12T09:51:17.432Z,1022.32
2019-02-12T09:52:17.379Z,1022.33
2019-02-12T09:53:17.333Z,1022.36
2019-02-12T09:54:17.279Z,1022.32
2019-02-12T09:55:17.231Z,1022.38
2019-02-12T09:56:17.182Z,1022.35
2019-02-12T09:57:17.132Z,1022.41
2019-02-12T09:58:17.081Z,1022.44
2019-02-12T09:59:17.031Z,1022.41
2019-02-12T10:00:16.983Z,1022.44
2019-02-12T10:01:16.981Z,1022.43
2019-02-12T10:02:16.882Z,1022.43
2019-02-12T10:03:16.833Z,1022.41
2019-02-12T10:04:16.784Z,1022.41
2019-02-12T10:05:16.733Z,1022.49
2019-02-12T10:06:21.710Z,1022.50
2019-02-12T10:07:16.644Z,1022.54
2019-02-12T10:08:16.590Z,1022.52
2019-02-12T10:09:16.536Z,1022.49
2019-02-12T10:10:16.487Z,1022.48
2019-02-12T10:11:16.436Z,1022.43
2019-02-12T10:12:16.389Z,1022.51
2019-02-12T10:13:16.336Z,1022.48
2019-02-12T10:14:16.288Z,1022.48
2019-02-12T10:15:16.239Z,1022.53
2019-02-12T10:16:16.190Z,1022.53
2019-02-12T10:17:16.139Z,1022.55
2019-02-12T10:18:16.090Z,1022.64
2019-02-12T10:19:16.048Z,1022.66
2019-02-12T10:20:15.991Z,1022.60
2019-02-12T10:21:15.990Z,1022.66
2019-02-12T10:22:15.891Z,1022.69
2019-02-12T10:23:15.844Z,1022.64
2019-02-12T10:24:19.656Z,1022.66
2019-02-12T10:25:15.747Z,1022.73
2019-02-12T10:26:15.693Z,1022.74
2019-02-12T10:27:15.643Z,1022.78
2019-02-12T10:28:15.596Z,1022.68
2019-02-12T10:29:15.543Z,1022.74
2019-02-12T10:30:15.494Z,1022.69
2019-02-12T10:31:15.446Z,1022.72
2019-02-12T10:32:15.395Z,1022.64
2019-02-12T10:33:16.043Z,1022.72
2019-02-12T10:34:15.296Z,1022.74
2019-02-12T10:35:15.246Z,1022.69
2019-02-12T10:36:15.197Z,1022.77
2019-02-12T10:37:15.148Z,1022.74
2019-02-12T10:38:15.101Z,1022.75
2019-02-12T10:39:15.049Z,1022.77
2019-02-12T10:40:15.000Z,1022.71
2019-02-12T10:41:14.950Z,1022.76
2019-02-12T10:42:14.950Z,1022.71
2019-02-12T10:43:14.850Z,1022.74
2019-02-12T10:44:14.802Z,1022.75
2019-02-12T10:45:14.750Z,1022.75
2019-02-12T10:46:14.702Z,1022.79
2019-02-12T10:47:14.692Z,1022.77
2019-02-12T10:48:14.606Z,1022.80
2019-02-12T10:49:14.552Z,1022.79
2019-02-12T10:50:14.502Z,1022.81
2019-02-12T10:51:14.458Z,1022.80
2019-02-12T10:52:14.409Z,1022.82
2019-02-12T10:53:14.355Z,1022.81
2019-02-12T10:54:14.306Z,1022.84
2019-02-12T10:55:14.255Z,1022.76
2019-02-12T10:56:14.209Z,1022.82
2019-02-12T10:57:14.168Z,1022.79
2019-02-12T10:58:14.115Z,1022.76
2019-02-12T10:59:14.497Z,1022.80
2019-02-12T11:00:14.010Z,1022.78
2019-02-12T11:01:13.960Z,1022.80
2019-02-12T11:02:13.908Z,1022.78
2019-02-12T11:03:13.859Z,1022.84
2019-02-12T11:04:13.810Z,1022.81
2019-02-12T11:05:13.764Z,1022.82
2019-02-12T11:06:13.710Z,1022.78
2019-02-12T11:07:13.661Z,1022.72
2019-02-12T11:08:13.610Z,1022.72
2019-02-12T11:09:13.561Z,1022.74
2019-02-12T11:10:13.512Z,1022.74
2019-02-12T11:11:13.461Z,1022.75
2019-02-12T11:12:13.412Z,1022.70
2019-02-12T11:13:13.363Z,1022.74
2019-02-12T11:14:13.313Z,1022.79
2019-02-12T11:15:13.264Z,1022.76
2019-02-12T11:16:13.216Z,1022.80
2019-02-12T11:17:13.163Z,1022.79
2019-02-12T11:18:13.115Z,1022.77
2019-02-12T11:19:13.068Z,1022.80
2019-02-12T11:20:13.018Z,1022.76
2019-02-12T11:21:12.970Z,1022.85
2019-02-12T11:22:12.919Z,1022.80
2019-02-12T11:23:12.866Z,1022.82
2019-02-12T11:24:12.818Z,1022.78
2019-02-12T11:25:12.767Z,1022.87
2019-02-12T11:26:12.719Z,1022.87
2019-02-12T11:27:12.668Z,1022.86
2019-02-12T11:28:12.622Z,1022.88
2019-02-12T11:29:12.569Z,1022.90
2019-02-12T11:30:12.520Z,1022.95
2019-02-12T11:31:12.473Z,1022.95
2019-02-12T11:32:12.422Z,1022.95
2019-02-12T11:33:12.372Z,1022.93
2019-02-12T11:34:13.945Z,1022.93
2019-02-12T11:35:12.272Z,1022.93
2019-02-12T11:36:12.226Z,1022.92
2019-02-12T11:37:12.173Z,1022.93
2019-02-12T11:38:12.123Z,1022.94
2019-02-12T11:39:12.074Z,1022.98
2019-02-12T11:40:13.416Z,1022.95
2019-02-12T11:41:11.974Z,1022.96
2019-02-12T11:42:11.926Z,1022.97
2019-02-12T11:43:11.877Z,1022.93
2019-02-12T11:44:11.827Z,1022.97
2019-02-12T11:45:11.777Z,1022.89
2019-02-12T11:46:11.730Z,1022.93
2019-02-12T11:47:11.678Z,1022.96
2019-02-12T11:48:11.630Z,1022.97
2019-02-12T11:49:11.577Z,1023.00
2019-02-12T11:50:11.528Z,1022.95
2019-02-12T11:51:11.478Z,1023.02
2019-02-12T11:52:11.430Z,1023.05
2019-02-12T11:53:11.379Z,1023.03
2019-02-12T11:54:11.331Z,1023.05
2019-02-12T11:55:11.283Z,1023.03
2019-02-12T11:56:11.231Z,1023.05
2019-02-12T11:57:11.181Z,1023.11
2019-02-12T11:58:11.132Z,1023.10
2019-02-12T11:59:11.083Z,1023.09
2019-02-12T12:00:11.034Z,1023.13
2019-02-12T12:01:10.984Z,1023.10
2019-02-12T12:02:10.935Z,1023.07
2019-02-12T12:03:10.886Z,1023.08
2019-02-12T12:04:10.838Z,1023.13
2019-02-12T12:05:10.784Z,1023.11